sensor_id;sensor_type;location;lat;lon;timestamp;temperature;humidity
71837;DHT22;59686;51.716;7.016;2023-02-08T00:00:28;6.70;74.40
71837;DHT22;59686;51.716;7.016;2023-02-08T00:02:54;6.70;74.50
71837;DHT22;59686;51.716;7.016;2023-02-08T00:05:39;6.70;74.40
71837;DHT22;59686;51.716;7.016;2023-02-08T00:08:05;6.70;74.40
71837;DHT22;59686;51.716;7.016;2023-02-08T00:10:32;6.70;74.40
71837;DHT22;59686;51.716;7.016;2023-02-08T00:12:58;6.70;74.40
71837;DHT22;59686;51.716;7.016;2023-02-08T00:15:23;6.80;74.50
71837;DHT22;59686;51.716;7.016;2023-02-08T00:17:49;6.70;74.40
71837;DHT22;59686;51.716;7.016;2023-02-08T00:20:15;6.60;74.40
71837;DHT22;59686;51.716;7.016;2023-02-08T00:22:40;6.60;74.50
71837;DHT22;59686;51.716;7.016;2023-02-08T00:25:07;6.60;74.40
71837;DHT22;59686;51.716;7.016;2023-02-08T00:27:33;6.60;74.40
71837;DHT22;59686;51.716;7.016;2023-02-08T00:29:58;6.60;74.40
71837;DHT22;59686;51.716;7.016;2023-02-08T00:32:24;6.60;74.40
71837;DHT22;59686;51.716;7.016;2023-02-08T00:34:50;6.60;74.40
71837;DHT22;59686;51.716;7.016;2023-02-08T00:37:16;6.70;74.50
71837;DHT22;59686;51.716;7.016;2023-02-08T00:39:42;6.60;74.40
71837;DHT22;59686;51.716;7.016;2023-02-08T00:42:07;6.60;74.50
71837;DHT22;59686;51.716;7.016;2023-02-08T00:44:33;6.60;75.20
71837;DHT22;59686;51.716;7.016;2023-02-08T00:46:59;6.60;74.30
71837;DHT22;59686;51.716;7.016;2023-02-08T00:49:25;6.60;74.40
71837;DHT22;59686;51.716;7.016;2023-02-08T00:52:02;6.60;74.40
71837;DHT22;59686;51.716;7.016;2023-02-08T00:54:27;6.70;74.30
71837;DHT22;59686;51.716;7.016;2023-02-08T00:56:53;6.50;74.20
71837;DHT22;59686;51.716;7.016;2023-02-08T00:59:19;6.40;74.20
71837;DHT22;59686;51.716;7.016;2023-02-08T01:01:44;6.50;74.30
71837;DHT22;59686;51.716;7.016;2023-02-08T01:04:10;6.50;74.30
71837;DHT22;59686;51.716;7.016;2023-02-08T01:06:36;6.50;74.30
71837;DHT22;59686;51.716;7.016;2023-02-08T01:09:02;6.50;74.20
71837;DHT22;59686;51.716;7.016;2023-02-08T01:11:27;6.50;74.30
71837;DHT22;59686;51.716;7.016;2023-02-08T01:13:55;6.50;74.20
71837;DHT22;59686;51.716;7.016;2023-02-08T01:16:27;6.50;74.10
71837;DHT22;59686;51.716;7.016;2023-02-08T01:18:55;6.50;74.10
71837;DHT22;59686;51.716;7.016;2023-02-08T01:21:23;6.40;74.00
71837;DHT22;59686;51.716;7.016;2023-02-08T01:23:49;6.50;74.10
71837;DHT22;59686;51.716;7.016;2023-02-08T01:26:23;6.40;74.00
71837;DHT22;59686;51.716;7.016;2023-02-08T01:28:50;6.40;73.90
71837;DHT22;59686;51.716;7.016;2023-02-08T01:31:29;6.40;74.00
71837;DHT22;59686;51.716;7.016;2023-02-08T01:34:00;6.50;74.00
71837;DHT22;59686;51.716;7.016;2023-02-08T01:36:27;6.40;73.90
71837;DHT22;59686;51.716;7.016;2023-02-08T01:38:57;6.40;74.00
71837;DHT22;59686;51.716;7.016;2023-02-08T01:41:26;6.50;74.10
71837;DHT22;59686;51.716;7.016;2023-02-08T01:44:05;6.40;74.00
71837;DHT22;59686;51.716;7.016;2023-02-08T01:46:36;6.40;74.10
71837;DHT22;59686;51.716;7.016;2023-02-08T01:49:31;6.40;73.90
71837;DHT22;59686;51.716;7.016;2023-02-08T01:51:59;6.40;73.90
71837;DHT22;59686;51.716;7.016;2023-02-08T01:54:30;6.40;73.90
71837;DHT22;59686;51.716;7.016;2023-02-08T01:56:58;6.40;73.90
71837;DHT22;59686;51.716;7.016;2023-02-08T01:59:46;6.30;73.80
71837;DHT22;59686;51.716;7.016;2023-02-08T02:02:17;6.40;73.90
71837;DHT22;59686;51.716;7.016;2023-02-08T02:04:44;6.40;73.90
71837;DHT22;59686;51.716;7.016;2023-02-08T02:07:11;6.30;73.80
71837;DHT22;59686;51.716;7.016;2023-02-08T02:09:44;6.30;73.80
71837;DHT22;59686;51.716;7.016;2023-02-08T02:12:12;6.30;73.80
71837;DHT22;59686;51.716;7.016;2023-02-08T02:14:38;6.30;73.70
71837;DHT22;59686;51.716;7.016;2023-02-08T02:17:05;6.40;73.90
71837;DHT22;59686;51.716;7.016;2023-02-08T02:28:23;6.30;73.70
71837;DHT22;59686;51.716;7.016;2023-02-08T02:34:09;6.30;73.70
71837;DHT22;59686;51.716;7.016;2023-02-08T02:42:50;6.20;73.70
71837;DHT22;59686;51.716;7.016;2023-02-08T02:51:10;6.20;73.50
71837;DHT22;59686;51.716;7.016;2023-02-08T02:56:09;6.20;73.60
71837;DHT22;59686;51.716;7.016;2023-02-08T02:58:37;6.20;73.50
71837;DHT22;59686;51.716;7.016;2023-02-08T03:01:04;6.20;73.50
71837;DHT22;59686;51.716;7.016;2023-02-08T03:03:32;6.10;73.50
71837;DHT22;59686;51.716;7.016;2023-02-08T03:06:09;6.20;73.50
71837;DHT22;59686;51.716;7.016;2023-02-08T03:11:31;6.20;73.50
71837;DHT22;59686;51.716;7.016;2023-02-08T03:14:29;6.10;73.50
71837;DHT22;59686;51.716;7.016;2023-02-08T03:17:24;6.10;73.40
71837;DHT22;59686;51.716;7.016;2023-02-08T03:23:18;6.10;73.40
71837;DHT22;59686;51.716;7.016;2023-02-08T03:28:58;6.10;73.40
71837;DHT22;59686;51.716;7.016;2023-02-08T03:31:43;6.10;73.40
71837;DHT22;59686;51.716;7.016;2023-02-08T03:34:18;6.10;73.40
71837;DHT22;59686;51.716;7.016;2023-02-08T03:36:57;5.90;73.30
71837;DHT22;59686;51.716;7.016;2023-02-08T03:39:29;6.10;73.40
71837;DHT22;59686;51.716;7.016;2023-02-08T03:42:11;6.00;73.30
71837;DHT22;59686;51.716;7.016;2023-02-08T03:44:58;6.10;73.40
71837;DHT22;59686;51.716;7.016;2023-02-08T03:47:28;6.10;73.40
71837;DHT22;59686;51.716;7.016;2023-02-08T03:49:59;6.00;73.20
71837;DHT22;59686;51.716;7.016;2023-02-08T03:52:29;6.00;73.30
71837;DHT22;59686;51.716;7.016;2023-02-08T03:55:07;6.00;73.20
71837;DHT22;59686;51.716;7.016;2023-02-08T03:57:42;6.00;73.20
71837;DHT22;59686;51.716;7.016;2023-02-08T04:00:11;6.00;73.20
71837;DHT22;59686;51.716;7.016;2023-02-08T04:02:48;6.00;73.20
71837;DHT22;59686;51.716;7.016;2023-02-08T04:05:15;6.00;73.20
71837;DHT22;59686;51.716;7.016;2023-02-08T04:07:42;6.00;73.90
71837;DHT22;59686;51.716;7.016;2023-02-08T04:10:08;6.00;73.20
71837;DHT22;59686;51.716;7.016;2023-02-08T04:12:33;6.00;73.10
71837;DHT22;59686;51.716;7.016;2023-02-08T04:15:02;6.00;73.10
71837;DHT22;59686;51.716;7.016;2023-02-08T04:17:28;5.90;73.00
71837;DHT22;59686;51.716;7.016;2023-02-08T04:19:53;6.00;73.10
71837;DHT22;59686;51.716;7.016;2023-02-08T04:22:19;6.00;73.10
71837;DHT22;59686;51.716;7.016;2023-02-08T04:24:45;5.90;73.00
71837;DHT22;59686;51.716;7.016;2023-02-08T04:27:10;5.90;73.00
71837;DHT22;59686;51.716;7.016;2023-02-08T04:29:36;5.90;73.00
71837;DHT22;59686;51.716;7.016;2023-02-08T04:32:02;5.90;72.90
71837;DHT22;59686;51.716;7.016;2023-02-08T04:34:28;5.90;72.90
71837;DHT22;59686;51.716;7.016;2023-02-08T04:36:53;5.90;72.90
71837;DHT22;59686;51.716;7.016;2023-02-08T04:39:23;5.90;72.90
71837;DHT22;59686;51.716;7.016;2023-02-08T04:41:49;5.90;72.90
71837;DHT22;59686;51.716;7.016;2023-02-08T04:44:15;5.90;72.90
71837;DHT22;59686;51.716;7.016;2023-02-08T04:46:40;5.90;72.80
71837;DHT22;59686;51.716;7.016;2023-02-08T04:49:06;5.90;72.80
71837;DHT22;59686;51.716;7.016;2023-02-08T04:51:42;5.90;72.80
71837;DHT22;59686;51.716;7.016;2023-02-08T04:54:08;5.80;72.70
71837;DHT22;59686;51.716;7.016;2023-02-08T04:56:34;5.90;72.80
71837;DHT22;59686;51.716;7.016;2023-02-08T04:59:00;5.80;72.80
71837;DHT22;59686;51.716;7.016;2023-02-08T05:01:25;5.90;72.70
71837;DHT22;59686;51.716;7.016;2023-02-08T05:03:51;5.80;72.70
71837;DHT22;59686;51.716;7.016;2023-02-08T05:06:17;6.00;72.80
71837;DHT22;59686;51.716;7.016;2023-02-08T05:08:46;5.80;72.70
71837;DHT22;59686;51.716;7.016;2023-02-08T05:11:11;5.80;72.70
71837;DHT22;59686;51.716;7.016;2023-02-08T05:13:37;6.00;72.80
71837;DHT22;59686;51.716;7.016;2023-02-08T05:16:15;5.80;72.60
71837;DHT22;59686;51.716;7.016;2023-02-08T05:18:42;5.80;72.60
71837;DHT22;59686;51.716;7.016;2023-02-08T05:21:08;5.80;72.60
71837;DHT22;59686;51.716;7.016;2023-02-08T05:23:37;5.80;72.60
71837;DHT22;59686;51.716;7.016;2023-02-08T05:26:07;5.80;72.60
71837;DHT22;59686;51.716;7.016;2023-02-08T05:28:33;5.80;72.50
71837;DHT22;59686;51.716;7.016;2023-02-08T05:31:06;5.80;72.60
71837;DHT22;59686;51.716;7.016;2023-02-08T05:33:36;5.70;72.60
71837;DHT22;59686;51.716;7.016;2023-02-08T05:36:02;5.60;72.40
71837;DHT22;59686;51.716;7.016;2023-02-08T05:38:28;5.70;72.40
71837;DHT22;59686;51.716;7.016;2023-02-08T05:40:53;5.70;72.50
71837;DHT22;59686;51.716;7.016;2023-02-08T05:43:19;5.70;72.50
71837;DHT22;59686;51.716;7.016;2023-02-08T05:45:45;5.70;72.40
71837;DHT22;59686;51.716;7.016;2023-02-08T05:48:10;5.70;72.40
71837;DHT22;59686;51.716;7.016;2023-02-08T05:50:36;5.70;72.40
71837;DHT22;59686;51.716;7.016;2023-02-08T05:53:02;5.70;72.50
71837;DHT22;59686;51.716;7.016;2023-02-08T05:55:27;5.70;72.40
71837;DHT22;59686;51.716;7.016;2023-02-08T05:57:54;5.70;72.40
71837;DHT22;59686;51.716;7.016;2023-02-08T06:00:20;5.70;72.40
71837;DHT22;59686;51.716;7.016;2023-02-08T06:02:45;5.60;72.30
71837;DHT22;59686;51.716;7.016;2023-02-08T06:05:11;5.70;72.40
71837;DHT22;59686;51.716;7.016;2023-02-08T06:07:37;5.70;72.30
71837;DHT22;59686;51.716;7.016;2023-02-08T06:10:03;5.70;72.30
71837;DHT22;59686;51.716;7.016;2023-02-08T06:12:29;5.70;72.30
71837;DHT22;59686;51.716;7.016;2023-02-08T06:14:54;5.70;72.30
71837;DHT22;59686;51.716;7.016;2023-02-08T06:17:20;5.70;72.30
71837;DHT22;59686;51.716;7.016;2023-02-08T06:19:46;5.60;72.30
71837;DHT22;59686;51.716;7.016;2023-02-08T06:22:11;5.70;72.30
71837;DHT22;59686;51.716;7.016;2023-02-08T06:24:37;5.60;72.30
71837;DHT22;59686;51.716;7.016;2023-02-08T06:27:03;5.60;72.30
71837;DHT22;59686;51.716;7.016;2023-02-08T06:29:28;5.60;72.30
71837;DHT22;59686;51.716;7.016;2023-02-08T06:31:54;5.60;72.20
71837;DHT22;59686;51.716;7.016;2023-02-08T06:34:20;5.60;72.20
71837;DHT22;59686;51.716;7.016;2023-02-08T06:36:45;5.60;72.20
71837;DHT22;59686;51.716;7.016;2023-02-08T06:39:11;5.60;72.30
71837;DHT22;59686;51.716;7.016;2023-02-08T06:41:37;5.60;72.20
71837;DHT22;59686;51.716;7.016;2023-02-08T06:44:02;5.60;72.20
71837;DHT22;59686;51.716;7.016;2023-02-08T06:46:28;5.50;72.20
71837;DHT22;59686;51.716;7.016;2023-02-08T06:48:54;5.60;72.20
71837;DHT22;59686;51.716;7.016;2023-02-08T06:51:24;5.60;72.20
71837;DHT22;59686;51.716;7.016;2023-02-08T06:53:53;5.60;72.30
71837;DHT22;59686;51.716;7.016;2023-02-08T06:56:23;5.50;72.20
71837;DHT22;59686;51.716;7.016;2023-02-08T06:58:49;5.60;72.20
71837;DHT22;59686;51.716;7.016;2023-02-08T07:01:18;5.60;72.30
71837;DHT22;59686;51.716;7.016;2023-02-08T07:03:55;5.60;72.40
71837;DHT22;59686;51.716;7.016;2023-02-08T07:06:21;5.60;72.40
71837;DHT22;59686;51.716;7.016;2023-02-08T07:08:48;5.60;72.50
71837;DHT22;59686;51.716;7.016;2023-02-08T07:11:16;5.60;72.50
71837;DHT22;59686;51.716;7.016;2023-02-08T07:13:48;5.60;72.50
71837;DHT22;59686;51.716;7.016;2023-02-08T07:16:15;5.60;72.60
71837;DHT22;59686;51.716;7.016;2023-02-08T07:18:43;5.60;72.60
71837;DHT22;59686;51.716;7.016;2023-02-08T07:21:09;5.50;72.50
71837;DHT22;59686;51.716;7.016;2023-02-08T07:23:39;5.50;72.50
71837;DHT22;59686;51.716;7.016;2023-02-08T07:26:22;5.60;72.60
71837;DHT22;59686;51.716;7.016;2023-02-08T07:28:47;5.50;72.50
71837;DHT22;59686;51.716;7.016;2023-02-08T07:31:15;5.50;72.60
71837;DHT22;59686;51.716;7.016;2023-02-08T07:33:43;5.50;72.70
71837;DHT22;59686;51.716;7.016;2023-02-08T07:36:09;5.50;72.70
71837;DHT22;59686;51.716;7.016;2023-02-08T07:38:38;5.50;72.70
71837;DHT22;59686;51.716;7.016;2023-02-08T07:41:10;5.40;72.60
71837;DHT22;59686;51.716;7.016;2023-02-08T07:43:48;5.50;72.70
71837;DHT22;59686;51.716;7.016;2023-02-08T07:46:18;5.50;72.70
71837;DHT22;59686;51.716;7.016;2023-02-08T07:48:56;5.50;72.70
71837;DHT22;59686;51.716;7.016;2023-02-08T07:51:36;5.50;72.80
71837;DHT22;59686;51.716;7.016;2023-02-08T07:54:05;5.50;72.70
71837;DHT22;59686;51.716;7.016;2023-02-08T07:56:31;5.50;72.80
71837;DHT22;59686;51.716;7.016;2023-02-08T07:58:58;5.70;72.90
71837;DHT22;59686;51.716;7.016;2023-02-08T08:01:25;5.50;73.60
71837;DHT22;59686;51.716;7.016;2023-02-08T08:03:52;5.50;72.80
71837;DHT22;59686;51.716;7.016;2023-02-08T08:06:19;5.50;72.80
71837;DHT22;59686;51.716;7.016;2023-02-08T08:08:46;5.50;72.90
71837;DHT22;59686;51.716;7.016;2023-02-08T08:11:16;5.50;72.90
71837;DHT22;59686;51.716;7.016;2023-02-08T08:13:42;5.50;72.90
71837;DHT22;59686;51.716;7.016;2023-02-08T08:16:11;5.50;73.00
71837;DHT22;59686;51.716;7.016;2023-02-08T08:18:38;5.50;73.00
71837;DHT22;59686;51.716;7.016;2023-02-08T08:21:04;5.50;73.10
71837;DHT22;59686;51.716;7.016;2023-02-08T08:23:31;5.50;73.10
71837;DHT22;59686;51.716;7.016;2023-02-08T08:25:59;5.50;73.10
71837;DHT22;59686;51.716;7.016;2023-02-08T08:28:26;5.70;73.20
71837;DHT22;59686;51.716;7.016;2023-02-08T08:30:52;5.60;73.20
71837;DHT22;59686;51.716;7.016;2023-02-08T08:33:18;5.50;73.20
71837;DHT22;59686;51.716;7.016;2023-02-08T08:35:45;5.50;73.20
71837;DHT22;59686;51.716;7.016;2023-02-08T08:38:17;5.60;73.20
71837;DHT22;59686;51.716;7.016;2023-02-08T08:40:46;5.50;73.20
71837;DHT22;59686;51.716;7.016;2023-02-08T08:43:13;5.50;73.30
71837;DHT22;59686;51.716;7.016;2023-02-08T08:45:38;5.50;73.30
71837;DHT22;59686;51.716;7.016;2023-02-08T08:48:04;5.50;73.30
71837;DHT22;59686;51.716;7.016;2023-02-08T08:50:30;5.50;73.40
71837;DHT22;59686;51.716;7.016;2023-02-08T08:52:57;5.50;73.40
71837;DHT22;59686;51.716;7.016;2023-02-08T08:55:25;5.40;73.30
71837;DHT22;59686;51.716;7.016;2023-02-08T08:57:56;5.50;73.40
71837;DHT22;59686;51.716;7.016;2023-02-08T09:00:23;5.50;73.50
71837;DHT22;59686;51.716;7.016;2023-02-08T09:02:49;5.50;73.40
71837;DHT22;59686;51.716;7.016;2023-02-08T09:05:15;5.50;73.40
71837;DHT22;59686;51.716;7.016;2023-02-08T09:07:41;5.50;73.40
71837;DHT22;59686;51.716;7.016;2023-02-08T09:10:08;5.50;73.30
71837;DHT22;59686;51.716;7.016;2023-02-08T09:12:34;5.60;73.40
71837;DHT22;59686;51.716;7.016;2023-02-08T09:15:05;5.50;73.40
71837;DHT22;59686;51.716;7.016;2023-02-08T09:17:31;5.50;73.40
71837;DHT22;59686;51.716;7.016;2023-02-08T09:19:58;5.50;73.50
71837;DHT22;59686;51.716;7.016;2023-02-08T09:22:29;5.50;73.60
71837;DHT22;59686;51.716;7.016;2023-02-08T09:24:57;5.50;73.50
71837;DHT22;59686;51.716;7.016;2023-02-08T09:27:24;5.60;73.60
71837;DHT22;59686;51.716;7.016;2023-02-08T09:29:49;5.50;73.50
71837;DHT22;59686;51.716;7.016;2023-02-08T09:32:15;5.50;73.60
71837;DHT22;59686;51.716;7.016;2023-02-08T09:34:41;5.60;74.30
71837;DHT22;59686;51.716;7.016;2023-02-08T09:37:06;5.60;73.60
71837;DHT22;59686;51.716;7.016;2023-02-08T09:39:32;5.60;73.60
71837;DHT22;59686;51.716;7.016;2023-02-08T09:42:32;5.60;73.70
71837;DHT22;59686;51.716;7.016;2023-02-08T09:48:21;5.60;73.80
71837;DHT22;59686;51.716;7.016;2023-02-08T09:54:06;5.60;73.90
71837;DHT22;59686;51.716;7.016;2023-02-08T09:56:34;5.60;73.80
71837;DHT22;59686;51.716;7.016;2023-02-08T09:59:23;5.50;73.80
71837;DHT22;59686;51.716;7.016;2023-02-08T10:01:59;5.60;73.90
71837;DHT22;59686;51.716;7.016;2023-02-08T10:07:20;5.60;74.70
71837;DHT22;59686;51.716;7.016;2023-02-08T10:09:46;5.60;74.00
71837;DHT22;59686;51.716;7.016;2023-02-08T10:26:35;5.60;74.10
71837;DHT22;59686;51.716;7.016;2023-02-08T10:34:59;5.60;74.10
71837;DHT22;59686;51.716;7.016;2023-02-08T10:37:34;5.60;74.10
71837;DHT22;59686;51.716;7.016;2023-02-08T10:40:36;5.60;74.20
71837;DHT22;59686;51.716;7.016;2023-02-08T10:45:55;5.70;74.30
71837;DHT22;59686;51.716;7.016;2023-02-08T10:51:28;5.70;74.20
71837;DHT22;59686;51.716;7.016;2023-02-08T10:53:55;5.60;74.20
71837;DHT22;59686;51.716;7.016;2023-02-08T10:56:56;5.80;74.30
71837;DHT22;59686;51.716;7.016;2023-02-08T10:59:43;5.70;74.20
71837;DHT22;59686;51.716;7.016;2023-02-08T11:05:20;5.70;74.20
71837;DHT22;59686;51.716;7.016;2023-02-08T11:08:04;5.70;74.20
71837;DHT22;59686;51.716;7.016;2023-02-08T11:10:32;5.80;74.10
71837;DHT22;59686;51.716;7.016;2023-02-08T11:15:28;5.80;74.00
71837;DHT22;59686;51.716;7.016;2023-02-08T11:17:58;5.70;73.80
71837;DHT22;59686;51.716;7.016;2023-02-08T11:20:38;5.80;73.70
71837;DHT22;59686;51.716;7.016;2023-02-08T11:23:27;5.80;73.70
71837;DHT22;59686;51.716;7.016;2023-02-08T11:26:21;5.80;73.20
71837;DHT22;59686;51.716;7.016;2023-02-08T11:34:36;5.80;73.40
71837;DHT22;59686;51.716;7.016;2023-02-08T11:37:19;5.80;73.40
71837;DHT22;59686;51.716;7.016;2023-02-08T11:39:56;5.90;73.60
71837;DHT22;59686;51.716;7.016;2023-02-08T11:42:25;5.90;73.40
71837;DHT22;59686;51.716;7.016;2023-02-08T11:44:56;5.90;73.20
71837;DHT22;59686;51.716;7.016;2023-02-08T11:47:34;5.90;73.30
71837;DHT22;59686;51.716;7.016;2023-02-08T11:50:05;5.90;73.20
71837;DHT22;59686;51.716;7.016;2023-02-08T11:52:36;5.90;73.20
71837;DHT22;59686;51.716;7.016;2023-02-08T11:57:56;5.90;73.10
71837;DHT22;59686;51.716;7.016;2023-02-08T12:00:28;5.90;73.00
71837;DHT22;59686;51.716;7.016;2023-02-08T12:03:15;5.90;73.00
71837;DHT22;59686;51.716;7.016;2023-02-08T12:06:00;5.90;73.00
71837;DHT22;59686;51.716;7.016;2023-02-08T12:11:14;5.90;73.60
71837;DHT22;59686;51.716;7.016;2023-02-08T12:17:15;6.00;72.60
71837;DHT22;59686;51.716;7.016;2023-02-08T12:20:17;5.90;72.40
71837;DHT22;59686;51.716;7.016;2023-02-08T12:34:19;6.00;72.10
71837;DHT22;59686;51.716;7.016;2023-02-08T12:37:16;6.00;71.90
71837;DHT22;59686;51.716;7.016;2023-02-08T12:43:15;6.10;72.10
71837;DHT22;59686;51.716;7.016;2023-02-08T12:48:27;6.10;72.20
71837;DHT22;59686;51.716;7.016;2023-02-08T12:51:32;6.00;72.10
71837;DHT22;59686;51.716;7.016;2023-02-08T12:54:25;6.10;72.30
71837;DHT22;59686;51.716;7.016;2023-02-08T12:56:54;6.10;72.00
71837;DHT22;59686;51.716;7.016;2023-02-08T12:59:25;6.10;72.00
71837;DHT22;59686;51.716;7.016;2023-02-08T13:01:59;6.10;71.90
71837;DHT22;59686;51.716;7.016;2023-02-08T13:04:42;6.10;71.60
71837;DHT22;59686;51.716;7.016;2023-02-08T13:07:22;6.10;71.60
71837;DHT22;59686;51.716;7.016;2023-02-08T13:12:58;6.20;71.60
71837;DHT22;59686;51.716;7.016;2023-02-08T13:15:39;6.10;71.60
71837;DHT22;59686;51.716;7.016;2023-02-08T13:18:26;6.10;71.50
71837;DHT22;59686;51.716;7.016;2023-02-08T13:21:07;6.20;71.50
71837;DHT22;59686;51.716;7.016;2023-02-08T13:23:44;6.20;71.60
71837;DHT22;59686;51.716;7.016;2023-02-08T13:26:26;6.20;71.50
71837;DHT22;59686;51.716;7.016;2023-02-08T13:28:59;6.20;71.40
71837;DHT22;59686;51.716;7.016;2023-02-08T13:31:46;6.20;72.20
71837;DHT22;59686;51.716;7.016;2023-02-08T13:34:26;6.30;71.30
71837;DHT22;59686;51.716;7.016;2023-02-08T13:36:59;6.30;71.40
71837;DHT22;59686;51.716;7.016;2023-02-08T13:39:41;6.30;71.50
71837;DHT22;59686;51.716;7.016;2023-02-08T13:42:19;6.30;71.10
71837;DHT22;59686;51.716;7.016;2023-02-08T13:44:50;6.30;71.20
71837;DHT22;59686;51.716;7.016;2023-02-08T13:47:42;6.30;71.20
71837;DHT22;59686;51.716;7.016;2023-02-08T13:53:01;6.30;71.00
71837;DHT22;59686;51.716;7.016;2023-02-08T13:58:25;6.40;71.00
71837;DHT22;59686;51.716;7.016;2023-02-08T14:03:33;6.40;70.90
71837;DHT22;59686;51.716;7.016;2023-02-08T14:06:02;6.30;70.80
71837;DHT22;59686;51.716;7.016;2023-02-08T14:13:47;6.40;70.80
71837;DHT22;59686;51.716;7.016;2023-02-08T14:16:25;6.50;71.00
71837;DHT22;59686;51.716;7.016;2023-02-08T14:18:54;6.40;70.90
71837;DHT22;59686;51.716;7.016;2023-02-08T14:21:41;6.50;71.00
71837;DHT22;59686;51.716;7.016;2023-02-08T14:24:22;6.50;71.00
71837;DHT22;59686;51.716;7.016;2023-02-08T14:26:49;6.50;71.00
71837;DHT22;59686;51.716;7.016;2023-02-08T14:29:22;6.50;71.00
71837;DHT22;59686;51.716;7.016;2023-02-08T14:31:49;6.50;70.90
71837;DHT22;59686;51.716;7.016;2023-02-08T14:34:31;6.50;70.90
71837;DHT22;59686;51.716;7.016;2023-02-08T14:37:27;6.50;71.00
71837;DHT22;59686;51.716;7.016;2023-02-08T14:45:38;6.60;71.00
71837;DHT22;59686;51.716;7.016;2023-02-08T14:53:50;6.60;71.00
71837;DHT22;59686;51.716;7.016;2023-02-08T14:56:53;6.60;71.00
71837;DHT22;59686;51.716;7.016;2023-02-08T14:59:24;6.70;71.10
71837;DHT22;59686;51.716;7.016;2023-02-08T15:01:58;6.80;71.20
71837;DHT22;59686;51.716;7.016;2023-02-08T15:04:25;6.70;71.30
71837;DHT22;59686;51.716;7.016;2023-02-08T15:09:53;6.70;71.20
71837;DHT22;59686;51.716;7.016;2023-02-08T15:12:27;6.70;71.40
71837;DHT22;59686;51.716;7.016;2023-02-08T15:15:00;6.70;71.50
71837;DHT22;59686;51.716;7.016;2023-02-08T15:17:33;6.80;71.50
71837;DHT22;59686;51.716;7.016;2023-02-08T15:20:03;6.70;71.70
71837;DHT22;59686;51.716;7.016;2023-02-08T15:22:35;6.70;71.60
71837;DHT22;59686;51.716;7.016;2023-02-08T15:27:49;6.70;71.70
71837;DHT22;59686;51.716;7.016;2023-02-08T15:30:26;6.80;71.90
71837;DHT22;59686;51.716;7.016;2023-02-08T15:32:55;6.80;71.90
71837;DHT22;59686;51.716;7.016;2023-02-08T15:35:23;6.80;71.80
71837;DHT22;59686;51.716;7.016;2023-02-08T15:37:51;6.80;71.90
71837;DHT22;59686;51.716;7.016;2023-02-08T15:40:30;6.80;72.60
71837;DHT22;59686;51.716;7.016;2023-02-08T15:43:11;6.80;72.10
71837;DHT22;59686;51.716;7.016;2023-02-08T15:45:37;6.80;71.90
71837;DHT22;59686;51.716;7.016;2023-02-08T15:48:05;6.90;72.10
71837;DHT22;59686;51.716;7.016;2023-02-08T15:50:35;6.80;72.10
71837;DHT22;59686;51.716;7.016;2023-02-08T15:53:03;6.80;72.00
71837;DHT22;59686;51.716;7.016;2023-02-08T15:55:37;6.80;71.90
71837;DHT22;59686;51.716;7.016;2023-02-08T15:58:05;6.80;72.00
71837;DHT22;59686;51.716;7.016;2023-02-08T16:00:34;6.90;72.10
71837;DHT22;59686;51.716;7.016;2023-02-08T16:03:18;6.90;72.10
71837;DHT22;59686;51.716;7.016;2023-02-08T16:05:56;6.90;71.80
71837;DHT22;59686;51.716;7.016;2023-02-08T16:08:29;6.90;71.90
71837;DHT22;59686;51.716;7.016;2023-02-08T16:11:13;6.90;71.90
71837;DHT22;59686;51.716;7.016;2023-02-08T16:13:47;7.00;72.10
71837;DHT22;59686;51.716;7.016;2023-02-08T16:16:35;6.90;72.00
71837;DHT22;59686;51.716;7.016;2023-02-08T16:21:51;7.00;72.10
71837;DHT22;59686;51.716;7.016;2023-02-08T16:24:18;7.00;72.00
71837;DHT22;59686;51.716;7.016;2023-02-08T16:29:37;7.00;71.90
71837;DHT22;59686;51.716;7.016;2023-02-08T16:34:46;7.00;72.10
71837;DHT22;59686;51.716;7.016;2023-02-08T16:37:24;7.10;72.20
71837;DHT22;59686;51.716;7.016;2023-02-08T16:40:08;7.10;72.10
71837;DHT22;59686;51.716;7.016;2023-02-08T16:42:51;7.10;72.30
71837;DHT22;59686;51.716;7.016;2023-02-08T16:45:19;7.10;72.20
71837;DHT22;59686;51.716;7.016;2023-02-08T16:47:55;7.10;72.30
71837;DHT22;59686;51.716;7.016;2023-02-08T16:50:26;7.00;72.10
71837;DHT22;59686;51.716;7.016;2023-02-08T16:52:59;7.10;72.20
71837;DHT22;59686;51.716;7.016;2023-02-08T16:55:27;7.10;72.30
71837;DHT22;59686;51.716;7.016;2023-02-08T16:57:56;7.10;72.30
71837;DHT22;59686;51.716;7.016;2023-02-08T17:00:24;7.10;72.30
71837;DHT22;59686;51.716;7.016;2023-02-08T17:02:55;7.10;72.30
71837;DHT22;59686;51.716;7.016;2023-02-08T17:05:24;7.10;72.30
71837;DHT22;59686;51.716;7.016;2023-02-08T17:07:50;7.20;72.30
71837;DHT22;59686;51.716;7.016;2023-02-08T17:10:35;7.10;72.30
71837;DHT22;59686;51.716;7.016;2023-02-08T17:13:02;7.20;72.30
71837;DHT22;59686;51.716;7.016;2023-02-08T17:15:28;7.20;72.30
71837;DHT22;59686;51.716;7.016;2023-02-08T17:17:55;7.20;72.30
71837;DHT22;59686;51.716;7.016;2023-02-08T17:20:26;7.20;72.40
71837;DHT22;59686;51.716;7.016;2023-02-08T17:22:54;7.20;72.30
71837;DHT22;59686;51.716;7.016;2023-02-08T17:25:21;7.10;72.20
71837;DHT22;59686;51.716;7.016;2023-02-08T17:27:55;7.20;72.20
71837;DHT22;59686;51.716;7.016;2023-02-08T17:30:34;7.20;72.30
71837;DHT22;59686;51.716;7.016;2023-02-08T17:33:01;7.30;72.20
71837;DHT22;59686;51.716;7.016;2023-02-08T17:35:29;7.20;72.10
71837;DHT22;59686;51.716;7.016;2023-02-08T17:37:56;7.30;72.20
71837;DHT22;59686;51.716;7.016;2023-02-08T17:40:24;7.20;72.10
71837;DHT22;59686;51.716;7.016;2023-02-08T17:42:52;7.30;72.20
71837;DHT22;59686;51.716;7.016;2023-02-08T17:45:19;7.20;72.10
71837;DHT22;59686;51.716;7.016;2023-02-08T17:47:44;7.30;72.10
71837;DHT22;59686;51.716;7.016;2023-02-08T17:50:12;7.30;72.20
71837;DHT22;59686;51.716;7.016;2023-02-08T17:52:38;7.20;72.20
71837;DHT22;59686;51.716;7.016;2023-02-08T17:55:06;7.20;72.10
71837;DHT22;59686;51.716;7.016;2023-02-08T17:57:34;7.30;72.20
71837;DHT22;59686;51.716;7.016;2023-02-08T18:00:00;7.30;72.20
71837;DHT22;59686;51.716;7.016;2023-02-08T18:02:26;7.30;72.20
71837;DHT22;59686;51.716;7.016;2023-02-08T18:04:52;7.30;72.10
71837;DHT22;59686;51.716;7.016;2023-02-08T18:07:18;7.30;72.10
71837;DHT22;59686;51.716;7.016;2023-02-08T18:09:44;7.20;72.10
71837;DHT22;59686;51.716;7.016;2023-02-08T18:12:10;7.30;72.10
71837;DHT22;59686;51.716;7.016;2023-02-08T18:14:36;7.30;72.10
71837;DHT22;59686;51.716;7.016;2023-02-08T18:17:05;7.30;72.10
71837;DHT22;59686;51.716;7.016;2023-02-08T18:19:31;7.30;72.10
71837;DHT22;59686;51.716;7.016;2023-02-08T18:21:57;7.30;72.00
71837;DHT22;59686;51.716;7.016;2023-02-08T18:24:26;7.30;72.00
71837;DHT22;59686;51.716;7.016;2023-02-08T18:26:52;7.30;72.00
71837;DHT22;59686;51.716;7.016;2023-02-08T18:29:18;7.30;71.90
71837;DHT22;59686;51.716;7.016;2023-02-08T18:31:44;7.30;71.90
71837;DHT22;59686;51.716;7.016;2023-02-08T18:34:09;7.40;71.90
71837;DHT22;59686;51.716;7.016;2023-02-08T18:36:36;7.30;71.80
71837;DHT22;59686;51.716;7.016;2023-02-08T18:39:03;7.30;71.80